sensor_id;sensor_type;location;lat;lon;timestamp;P1;durP1;ratioP1;P2;durP2;ratioP2
77870;SDS011;67067;46.850;7.578;2023-04-15T00:01:20;3.58;;;1.95;;
77870;SDS011;67067;46.850;7.578;2023-04-15T00:02:23;5.07;;;1.80;;
77870;SDS011;67067;46.850;7.578;2023-04-15T00:03:25;3.40;;;2.13;;
77870;SDS011;67067;46.850;7.578;2023-04-15T00:04:27;4.30;;;2.00;;
77870;SDS011;67067;46.850;7.578;2023-04-15T00:05:29;5.30;;;2.10;;
77870;SDS011;67067;46.850;7.578;2023-04-15T00:06:31;3.50;;;1.80;;
77870;SDS011;67067;46.850;7.578;2023-04-15T00:08:35;2.75;;;1.85;;
77870;SDS011;67067;46.850;7.578;2023-04-15T00:10:40;6.97;;;1.80;;
77870;SDS011;67067;46.850;7.578;2023-04-15T00:11:44;2.25;;;1.85;;
77870;SDS011;67067;46.850;7.578;2023-04-15T00:12:46;3.70;;;2.00;;
77870;SDS011;67067;46.850;7.578;2023-04-15T00:13:51;5.68;;;1.98;;
77870;SDS011;67067;46.850;7.578;2023-04-15T00:14:53;2.92;;;2.00;;
77870;SDS011;67067;46.850;7.578;2023-04-15T00:15:54;2.67;;;2.03;;
77870;SDS011;67067;46.850;7.578;2023-04-15T00:17:58;4.97;;;2.40;;
77870;SDS011;67067;46.850;7.578;2023-04-15T00:19:02;4.05;;;2.05;;
77870;SDS011;67067;46.850;7.578;2023-04-15T00:20:05;4.60;;;2.00;;
77870;SDS011;67067;46.850;7.578;2023-04-15T00:21:07;2.55;;;1.80;;
77870;SDS011;67067;46.850;7.578;2023-04-15T00:22:10;5.20;;;2.35;;
77870;SDS011;67067;46.850;7.578;2023-04-15T00:23:12;4.90;;;2.20;;
77870;SDS011;67067;46.850;7.578;2023-04-15T00:25:16;5.97;;;2.38;;
77870;SDS011;67067;46.850;7.578;2023-04-15T00:26:18;4.30;;;2.15;;
77870;SDS011;67067;46.850;7.578;2023-04-15T00:27:22;5.13;;;2.15;;
77870;SDS011;67067;46.850;7.578;2023-04-15T00:29:26;3.22;;;2.20;;
77870;SDS011;67067;46.850;7.578;2023-04-15T00:30:30;4.60;;;1.88;;
77870;SDS011;67067;46.850;7.578;2023-04-15T00:31:32;2.10;;;1.88;;
77870;SDS011;67067;46.850;7.578;2023-04-15T00:32:34;4.72;;;2.45;;
77870;SDS011;67067;46.850;7.578;2023-04-15T00:33:38;7.13;;;2.40;;
77870;SDS011;67067;46.850;7.578;2023-04-15T00:34:40;3.25;;;2.10;;
77870;SDS011;67067;46.850;7.578;2023-04-15T00:35:45;2.35;;;1.88;;
77870;SDS011;67067;46.850;7.578;2023-04-15T00:37:55;3.63;;;1.80;;
77870;SDS011;67067;46.850;7.578;2023-04-15T00:38:57;4.50;;;2.08;;
77870;SDS011;67067;46.850;7.578;2023-04-15T00:39:59;3.13;;;2.08;;
77870;SDS011;67067;46.850;7.578;2023-04-15T00:41:01;2.05;;;1.85;;
77870;SDS011;67067;46.850;7.578;2023-04-15T00:42:04;4.07;;;2.10;;
77870;SDS011;67067;46.850;7.578;2023-04-15T00:43:08;2.88;;;1.83;;
77870;SDS011;67067;46.850;7.578;2023-04-15T00:44:10;4.82;;;2.28;;
77870;SDS011;67067;46.850;7.578;2023-04-15T00:46:13;4.88;;;2.58;;
77870;SDS011;67067;46.850;7.578;2023-04-15T00:47:20;5.22;;;1.95;;
77870;SDS011;67067;46.850;7.578;2023-04-15T00:48:22;6.22;;;2.30;;
77870;SDS011;67067;46.850;7.578;2023-04-15T00:49:25;4.05;;;2.00;;
77870;SDS011;67067;46.850;7.578;2023-04-15T00:50:27;3.97;;;2.25;;
77870;SDS011;67067;46.850;7.578;2023-04-15T00:51:29;3.83;;;1.90;;
77870;SDS011;67067;46.850;7.578;2023-04-15T00:52:33;5.97;;;2.22;;
77870;SDS011;67067;46.850;7.578;2023-04-15T00:54:40;5.72;;;1.85;;
77870;SDS011;67067;46.850;7.578;2023-04-15T00:55:44;4.07;;;2.35;;
77870;SDS011;67067;46.850;7.578;2023-04-15T00:56:46;5.75;;;1.90;;
77870;SDS011;67067;46.850;7.578;2023-04-15T00:57:50;6.43;;;2.10;;
77870;SDS011;67067;46.850;7.578;2023-04-15T00:58:52;2.63;;;1.88;;
77870;SDS011;67067;46.850;7.578;2023-04-15T00:59:55;2.05;;;1.85;;
77870;SDS011;67067;46.850;7.578;2023-04-15T01:00:57;4.03;;;2.28;;
77870;SDS011;67067;46.850;7.578;2023-04-15T01:01:59;4.55;;;2.22;;
77870;SDS011;67067;46.850;7.578;2023-04-15T01:03:03;3.50;;;2.10;;
77870;SDS011;67067;46.850;7.578;2023-04-15T01:04:08;5.45;;;2.25;;
77870;SDS011;67067;46.850;7.578;2023-04-15T01:05:12;2.08;;;1.90;;
77870;SDS011;67067;46.850;7.578;2023-04-15T01:06:17;5.13;;;2.22;;
77870;SDS011;67067;46.850;7.578;2023-04-15T01:07:19;4.28;;;2.15;;
77870;SDS011;67067;46.850;7.578;2023-04-15T01:09:22;4.28;;;2.10;;
77870;SDS011;67067;46.850;7.578;2023-04-15T01:10:24;1.95;;;1.67;;
77870;SDS011;67067;46.850;7.578;2023-04-15T01:12:31;8.48;;;1.95;;
77870;SDS011;67067;46.850;7.578;2023-04-15T01:13:34;2.72;;;1.95;;
77870;SDS011;67067;46.850;7.578;2023-04-15T01:14:37;6.93;;;1.92;;
77870;SDS011;67067;46.850;7.578;2023-04-15T01:15:42;3.42;;;2.15;;
77870;SDS011;67067;46.850;7.578;2023-04-15T01:16:45;5.50;;;2.08;;
77870;SDS011;67067;46.850;7.578;2023-04-15T01:17:47;2.97;;;2.10;;
77870;SDS011;67067;46.850;7.578;2023-04-15T01:18:49;2.45;;;1.60;;
77870;SDS011;67067;46.850;7.578;2023-04-15T01:19:54;3.45;;;1.95;;
77870;SDS011;67067;46.850;7.578;2023-04-15T01:20:59;5.57;;;1.95;;
77870;SDS011;67067;46.850;7.578;2023-04-15T01:22:02;6.25;;;2.10;;
77870;SDS011;67067;46.850;7.578;2023-04-15T01:23:04;2.70;;;1.67;;
77870;SDS011;67067;46.850;7.578;2023-04-15T01:24:07;4.90;;;2.17;;
77870;SDS011;67067;46.850;7.578;2023-04-15T01:25:11;3.80;;;1.92;;
77870;SDS011;67067;46.850;7.578;2023-04-15T01:26:17;3.80;;;2.15;;
77870;SDS011;67067;46.850;7.578;2023-04-15T01:27:20;3.22;;;1.92;;
77870;SDS011;67067;46.850;7.578;2023-04-15T01:28:25;5.70;;;2.10;;
77870;SDS011;67067;46.850;7.578;2023-04-15T01:29:27;3.10;;;2.08;;
77870;SDS011;67067;46.850;7.578;2023-04-15T01:30:32;4.78;;;1.88;;
77870;SDS011;67067;46.850;7.578;2023-04-15T01:31:37;3.63;;;1.98;;
77870;SDS011;67067;46.850;7.578;2023-04-15T01:32:39;5.35;;;2.03;;
77870;SDS011;67067;46.850;7.578;2023-04-15T01:33:41;5.55;;;1.90;;
77870;SDS011;67067;46.850;7.578;2023-04-15T01:34:43;3.47;;;2.10;;
77870;SDS011;67067;46.850;7.578;2023-04-15T01:36:49;5.65;;;2.20;;
77870;SDS011;67067;46.850;7.578;2023-04-15T01:37:52;2.78;;;1.83;;
77870;SDS011;67067;46.850;7.578;2023-04-15T01:38:56;5.53;;;2.30;;
77870;SDS011;67067;46.850;7.578;2023-04-15T01:40:01;2.50;;;1.75;;
77870;SDS011;67067;46.850;7.578;2023-04-15T01:41:03;6.13;;;2.08;;
77870;SDS011;67067;46.850;7.578;2023-04-15T01:42:07;4.88;;;2.22;;
77870;SDS011;67067;46.850;7.578;2023-04-15T01:43:10;7.45;;;2.03;;
77870;SDS011;67067;46.850;7.578;2023-04-15T01:45:13;2.80;;;2.15;;
77870;SDS011;67067;46.850;7.578;2023-04-15T01:47:16;2.45;;;1.83;;
77870;SDS011;67067;46.850;7.578;2023-04-15T01:48:21;2.80;;;1.63;;
77870;SDS011;67067;46.850;7.578;2023-04-15T01:49:23;3.40;;;1.65;;
77870;SDS011;67067;46.850;7.578;2023-04-15T01:50:27;6.22;;;2.00;;
77870;SDS011;67067;46.850;7.578;2023-04-15T01:52:30;3.20;;;1.88;;
77870;SDS011;67067;46.850;7.578;2023-04-15T01:54:35;5.22;;;2.05;;
77870;SDS011;67067;46.850;7.578;2023-04-15T01:55:37;2.45;;;1.70;;
77870;SDS011;67067;46.850;7.578;2023-04-15T01:56:40;2.83;;;2.15;;
77870;SDS011;67067;46.850;7.578;2023-04-15T01:57:43;4.07;;;2.08;;
77870;SDS011;67067;46.850;7.578;2023-04-15T01:59:46;2.30;;;1.73;;
77870;SDS011;67067;46.850;7.578;2023-04-15T02:00:48;2.28;;;1.60;;
77870;SDS011;67067;46.850;7.578;2023-04-15T02:01:50;6.53;;;2.10;;
77870;SDS011;67067;46.850;7.578;2023-04-15T02:02:53;3.70;;;1.90;;
77870;SDS011;67067;46.850;7.578;2023-04-15T02:03:58;5.65;;;2.03;;
77870;SDS011;67067;46.850;7.578;2023-04-15T02:06:04;5.40;;;2.28;;
77870;SDS011;67067;46.850;7.578;2023-04-15T02:07:06;4.70;;;2.10;;
77870;SDS011;67067;46.850;7.578;2023-04-15T02:08:09;4.55;;;2.33;;
77870;SDS011;67067;46.850;7.578;2023-04-15T02:09:11;4.35;;;2.42;;
77870;SDS011;67067;46.850;7.578;2023-04-15T02:10:13;4.70;;;2.17;;
77870;SDS011;67067;46.850;7.578;2023-04-15T02:11:16;5.18;;;2.55;;
77870;SDS011;67067;46.850;7.578;2023-04-15T02:12:19;3.10;;;1.98;;
77870;SDS011;67067;46.850;7.578;2023-04-15T02:13:24;5.50;;;2.33;;
77870;SDS011;67067;46.850;7.578;2023-04-15T02:15:28;4.40;;;2.13;;
77870;SDS011;67067;46.850;7.578;2023-04-15T02:16:32;4.85;;;2.08;;
77870;SDS011;67067;46.850;7.578;2023-04-15T02:17:34;4.18;;;2.38;;
77870;SDS011;67067;46.850;7.578;2023-04-15T02:18:41;5.20;;;2.10;;
77870;SDS011;67067;46.850;7.578;2023-04-15T02:19:43;3.10;;;1.95;;
77870;SDS011;67067;46.850;7.578;2023-04-15T02:20:45;6.47;;;2.22;;
77870;SDS011;67067;46.850;7.578;2023-04-15T02:21:47;3.55;;;1.90;;
77870;SDS011;67067;46.850;7.578;2023-04-15T02:22:51;2.42;;;2.13;;
77870;SDS011;67067;46.850;7.578;2023-04-15T02:24:54;4.40;;;2.10;;
77870;SDS011;67067;46.850;7.578;2023-04-15T02:25:58;4.75;;;2.60;;
77870;SDS011;67067;46.850;7.578;2023-04-15T02:28:02;5.47;;;1.88;;
77870;SDS011;67067;46.850;7.578;2023-04-15T02:29:04;3.58;;;2.10;;
77870;SDS011;67067;46.850;7.578;2023-04-15T02:30:07;5.57;;;2.90;;
77870;SDS011;67067;46.850;7.578;2023-04-15T02:31:09;6.35;;;2.13;;
77870;SDS011;67067;46.850;7.578;2023-04-15T02:32:13;3.53;;;1.98;;
77870;SDS011;67067;46.850;7.578;2023-04-15T02:33:17;7.07;;;2.35;;
77870;SDS011;67067;46.850;7.578;2023-04-15T02:34:21;3.47;;;1.50;;
77870;SDS011;67067;46.850;7.578;2023-04-15T02:36:26;3.53;;;1.73;;
77870;SDS011;67067;46.850;7.578;2023-04-15T02:37:31;5.05;;;2.00;;
77870;SDS011;67067;46.850;7.578;2023-04-15T02:38:42;6.82;;;1.95;;
77870;SDS011;67067;46.850;7.578;2023-04-15T02:39:46;4.25;;;2.10;;
77870;SDS011;67067;46.850;7.578;2023-04-15T02:40:49;4.53;;;1.98;;
77870;SDS011;67067;46.850;7.578;2023-04-15T02:41:51;5.28;;;2.60;;
77870;SDS011;67067;46.850;7.578;2023-04-15T02:43:54;5.47;;;2.50;;
77870;SDS011;67067;46.850;7.578;2023-04-15T02:44:57;4.97;;;2.70;;
77870;SDS011;67067;46.850;7.578;2023-04-15T02:46:04;4.75;;;2.85;;
77870;SDS011;67067;46.850;7.578;2023-04-15T02:47:06;2.45;;;2.25;;
77870;SDS011;67067;46.850;7.578;2023-04-15T02:49:10;5.30;;;2.38;;
77870;SDS011;67067;46.850;7.578;2023-04-15T02:51:16;6.57;;;2.83;;
77870;SDS011;67067;46.850;7.578;2023-04-15T02:52:20;9.40;;;2.90;;
77870;SDS011;67067;46.850;7.578;2023-04-15T02:53:22;8.50;;;3.05;;
77870;SDS011;67067;46.850;7.578;2023-04-15T02:54:24;5.78;;;2.92;;
77870;SDS011;67067;46.850;7.578;2023-04-15T02:55:26;6.68;;;3.05;;
77870;SDS011;67067;46.850;7.578;2023-04-15T02:56:28;8.25;;;3.00;;
77870;SDS011;67067;46.850;7.578;2023-04-15T02:57:31;4.15;;;2.50;;
77870;SDS011;67067;46.850;7.578;2023-04-15T02:58:38;5.68;;;2.70;;
77870;SDS011;67067;46.850;7.578;2023-04-15T02:59:41;6.75;;;2.63;;
77870;SDS011;67067;46.850;7.578;2023-04-15T03:01:44;5.55;;;2.65;;
77870;SDS011;67067;46.850;7.578;2023-04-15T03:02:48;5.15;;;2.50;;
77870;SDS011;67067;46.850;7.578;2023-04-15T03:04:13;3.08;;;2.45;;
77870;SDS011;67067;46.850;7.578;2023-04-15T03:05:17;6.55;;;2.42;;
77870;SDS011;67067;46.850;7.578;2023-04-15T03:06:23;5.13;;;2.35;;
77870;SDS011;67067;46.850;7.578;2023-04-15T03:07:25;4.93;;;2.47;;
77870;SDS011;67067;46.850;7.578;2023-04-15T03:08:27;3.40;;;2.35;;
77870;SDS011;67067;46.850;7.578;2023-04-15T03:09:31;4.15;;;2.42;;
77870;SDS011;67067;46.850;7.578;2023-04-15T03:10:35;5.45;;;2.40;;
77870;SDS011;67067;46.850;7.578;2023-04-15T03:11:37;5.00;;;2.22;;
77870;SDS011;67067;46.850;7.578;2023-04-15T03:12:42;4.18;;;2.33;;
77870;SDS011;67067;46.850;7.578;2023-04-15T03:13:49;9.35;;;2.85;;
77870;SDS011;67067;46.850;7.578;2023-04-15T03:15:00;5.07;;;2.38;;
77870;SDS011;67067;46.850;7.578;2023-04-15T03:16:08;6.35;;;2.38;;
77870;SDS011;67067;46.850;7.578;2023-04-15T03:17:10;16.70;;;7.20;;
77870;SDS011;67067;46.850;7.578;2023-04-15T03:19:14;19.83;;;6.68;;
77870;SDS011;67067;46.850;7.578;2023-04-15T03:20:17;6.07;;;3.17;;
77870;SDS011;67067;46.850;7.578;2023-04-15T03:21:21;6.30;;;3.22;;
77870;SDS011;67067;46.850;7.578;2023-04-15T03:22:24;5.05;;;2.58;;
77870;SDS011;67067;46.850;7.578;2023-04-15T03:23:29;5.43;;;3.00;;
77870;SDS011;67067;46.850;7.578;2023-04-15T03:24:35;7.43;;;3.15;;
77870;SDS011;67067;46.850;7.578;2023-04-15T03:26:40;6.00;;;2.72;;
77870;SDS011;67067;46.850;7.578;2023-04-15T03:27:48;4.95;;;2.72;;
77870;SDS011;67067;46.850;7.578;2023-04-15T03:28:55;3.85;;;2.95;;
77870;SDS011;67067;46.850;7.578;2023-04-15T03:29:57;6.80;;;3.20;;
77870;SDS011;67067;46.850;7.578;2023-04-15T03:31:02;9.48;;;2.60;;
77870;SDS011;67067;46.850;7.578;2023-04-15T03:32:06;5.50;;;2.50;;
77870;SDS011;67067;46.850;7.578;2023-04-15T03:34:11;3.10;;;2.40;;
77870;SDS011;67067;46.850;7.578;2023-04-15T03:35:15;5.90;;;2.50;;
77870;SDS011;67067;46.850;7.578;2023-04-15T03:37:18;4.93;;;2.55;;
77870;SDS011;67067;46.850;7.578;2023-04-15T03:39:24;6.15;;;2.95;;
77870;SDS011;67067;46.850;7.578;2023-04-15T03:41:27;4.20;;;2.35;;
77870;SDS011;67067;46.850;7.578;2023-04-15T03:43:30;6.53;;;2.60;;
77870;SDS011;67067;46.850;7.578;2023-04-15T03:44:34;5.15;;;2.75;;
77870;SDS011;67067;46.850;7.578;2023-04-15T03:45:36;5.55;;;2.72;;
77870;SDS011;67067;46.850;7.578;2023-04-15T03:47:42;5.45;;;2.83;;
77870;SDS011;67067;46.850;7.578;2023-04-15T03:48:46;7.38;;;3.30;;
77870;SDS011;67067;46.850;7.578;2023-04-15T03:49:49;5.63;;;2.90;;
77870;SDS011;67067;46.850;7.578;2023-04-15T03:50:53;9.70;;;2.97;;
77870;SDS011;67067;46.850;7.578;2023-04-15T03:51:54;5.22;;;2.88;;
77870;SDS011;67067;46.850;7.578;2023-04-15T03:52:56;10.98;;;3.25;;
77870;SDS011;67067;46.850;7.578;2023-04-15T03:53:58;5.18;;;2.72;;
77870;SDS011;67067;46.850;7.578;2023-04-15T03:56:01;6.88;;;3.03;;
77870;SDS011;67067;46.850;7.578;2023-04-15T03:58:05;3.55;;;2.42;;
77870;SDS011;67067;46.850;7.578;2023-04-15T04:00:09;4.22;;;2.63;;
77870;SDS011;67067;46.850;7.578;2023-04-15T04:01:13;4.78;;;2.55;;
77870;SDS011;67067;46.850;7.578;2023-04-15T04:02:16;5.63;;;2.33;;
77870;SDS011;67067;46.850;7.578;2023-04-15T04:03:20;5.07;;;2.20;;
77870;SDS011;67067;46.850;7.578;2023-04-15T04:04:23;2.50;;;2.28;;
77870;SDS011;67067;46.850;7.578;2023-04-15T04:05:25;7.03;;;2.70;;
77870;SDS011;67067;46.850;7.578;2023-04-15T04:07:28;3.83;;;2.17;;
77870;SDS011;67067;46.850;7.578;2023-04-15T04:08:30;4.40;;;2.45;;
77870;SDS011;67067;46.850;7.578;2023-04-15T04:10:33;4.45;;;2.13;;
77870;SDS011;67067;46.850;7.578;2023-04-15T04:12:37;5.55;;;2.55;;
77870;SDS011;67067;46.850;7.578;2023-04-15T04:13:39;5.40;;;2.10;;
77870;SDS011;67067;46.850;7.578;2023-04-15T04:14:41;4.93;;;2.90;;
77870;SDS011;67067;46.850;7.578;2023-04-15T04:16:45;2.92;;;2.40;;
77870;SDS011;67067;46.850;7.578;2023-04-15T04:18:48;4.35;;;2.72;;
77870;SDS011;67067;46.850;7.578;2023-04-15T04:19:52;5.05;;;2.80;;
77870;SDS011;67067;46.850;7.578;2023-04-15T04:20:56;5.55;;;2.65;;
77870;SDS011;67067;46.850;7.578;2023-04-15T04:22:59;6.55;;;2.75;;
77870;SDS011;67067;46.850;7.578;2023-04-15T04:25:03;5.88;;;2.72;;
77870;SDS011;67067;46.850;7.578;2023-04-15T04:26:06;8.10;;;2.83;;
77870;SDS011;67067;46.850;7.578;2023-04-15T04:27:07;7.80;;;3.22;;
77870;SDS011;67067;46.850;7.578;2023-04-15T04:29:11;5.80;;;2.78;;
77870;SDS011;67067;46.850;7.578;2023-04-15T04:30:15;9.43;;;3.30;;
77870;SDS011;67067;46.850;7.578;2023-04-15T04:32:27;5.05;;;2.78;;
77870;SDS011;67067;46.850;7.578;2023-04-15T04:34:30;5.72;;;3.00;;
77870;SDS011;67067;46.850;7.578;2023-04-15T04:35:32;6.97;;;3.58;;
77870;SDS011;67067;46.850;7.578;2023-04-15T04:36:35;8.57;;;3.45;;
77870;SDS011;67067;46.850;7.578;2023-04-15T04:37:39;7.70;;;3.30;;
77870;SDS011;67067;46.850;7.578;2023-04-15T04:38:43;9.13;;;3.50;;
77870;SDS011;67067;46.850;7.578;2023-04-15T04:39:44;6.35;;;3.63;;
77870;SDS011;67067;46.850;7.578;2023-04-15T04:40:47;9.55;;;3.33;;
77870;SDS011;67067;46.850;7.578;2023-04-15T04:41:51;7.80;;;3.40;;
77870;SDS011;67067;46.850;7.578;2023-04-15T04:43:54;5.82;;;3.13;;
77870;SDS011;67067;46.850;7.578;2023-04-15T04:44:56;5.65;;;3.83;;
77870;SDS011;67067;46.850;7.578;2023-04-15T04:45:58;11.35;;;3.63;;
77870;SDS011;67067;46.850;7.578;2023-04-15T04:47:00;5.40;;;3.05;;
77870;SDS011;67067;46.850;7.578;2023-04-15T04:49:07;8.93;;;3.60;;
77870;SDS011;67067;46.850;7.578;2023-04-15T04:51:11;8.00;;;3.63;;
77870;SDS011;67067;46.850;7.578;2023-04-15T04:52:15;6.60;;;3.08;;
77870;SDS011;67067;46.850;7.578;2023-04-15T04:54:18;5.78;;;3.03;;
77870;SDS011;67067;46.850;7.578;2023-04-15T04:55:20;4.93;;;3.10;;
77870;SDS011;67067;46.850;7.578;2023-04-15T04:56:21;4.68;;;2.67;;
77870;SDS011;67067;46.850;7.578;2023-04-15T04:57:23;5.28;;;2.92;;
77870;SDS011;67067;46.850;7.578;2023-04-15T04:58:27;4.72;;;2.88;;
77870;SDS011;67067;46.850;7.578;2023-04-15T04:59:29;5.93;;;2.83;;
77870;SDS011;67067;46.850;7.578;2023-04-15T05:00:31;6.60;;;3.10;;
77870;SDS011;67067;46.850;7.578;2023-04-15T05:02:39;3.10;;;2.40;;
77870;SDS011;67067;46.850;7.578;2023-04-15T05:03:42;5.60;;;2.85;;
77870;SDS011;67067;46.850;7.578;2023-04-15T05:04:44;5.35;;;2.65;;
77870;SDS011;67067;46.850;7.578;2023-04-15T05:05:46;7.72;;;3.00;;
77870;SDS011;67067;46.850;7.578;2023-04-15T05:06:49;6.57;;;2.72;;
77870;SDS011;67067;46.850;7.578;2023-04-15T05:07:54;5.13;;;2.70;;
77870;SDS011;67067;46.850;7.578;2023-04-15T05:08:56;6.40;;;2.67;;
77870;SDS011;67067;46.850;7.578;2023-04-15T05:11:00;6.22;;;2.90;;
77870;SDS011;67067;46.850;7.578;2023-04-15T05:13:04;6.90;;;2.90;;
77870;SDS011;67067;46.850;7.578;2023-04-15T05:14:08;7.03;;;2.90;;
77870;SDS011;67067;46.850;7.578;2023-04-15T05:15:12;5.00;;;2.72;;
77870;SDS011;67067;46.850;7.578;2023-04-15T05:17:18;6.80;;;2.65;;
77870;SDS011;67067;46.850;7.578;2023-04-15T05:18:22;5.90;;;2.80;;
77870;SDS011;67067;46.850;7.578;2023-04-15T05:19:24;4.20;;;2.90;;
77870;SDS011;67067;46.850;7.578;2023-04-15T05:20:28;5.78;;;2.92;;
77870;SDS011;67067;46.850;7.578;2023-04-15T05:21:30;4.78;;;3.20;;
77870;SDS011;67067;46.850;7.578;2023-04-15T05:22:32;7.30;;;3.45;;
77870;SDS011;67067;46.850;7.578;2023-04-15T05:24:35;8.23;;;3.60;;
77870;SDS011;67067;46.850;7.578;2023-04-15T05:26:41;4.80;;;3.38;;
77870;SDS011;67067;46.850;7.578;2023-04-15T05:27:45;7.00;;;3.78;;
77870;SDS011;67067;46.850;7.578;2023-04-15T05:28:49;8.85;;;3.72;;
77870;SDS011;67067;46.850;7.578;2023-04-15T05:29:53;6.63;;;3.78;;
77870;SDS011;67067;46.850;7.578;2023-04-15T05:31:59;9.65;;;4.20;;
77870;SDS011;67067;46.850;7.578;2023-04-15T05:33:01;9.25;;;3.78;;
77870;SDS011;67067;46.850;7.578;2023-04-15T05:34:07;6.65;;;3.60;;
77870;SDS011;67067;46.850;7.578;2023-04-15T05:35:09;7.32;;;4.30;;
77870;SDS011;67067;46.850;7.578;2023-04-15T05:36:10;4.95;;;3.40;;
77870;SDS011;67067;46.850;7.578;2023-04-15T05:37:12;5.63;;;3.63;;
77870;SDS011;67067;46.850;7.578;2023-04-15T05:39:16;9.63;;;3.90;;
77870;SDS011;67067;46.850;7.578;2023-04-15T05:40:18;5.57;;;3.88;;
77870;SDS011;67067;46.850;7.578;2023-04-15T05:41:20;5.43;;;3.00;;
77870;SDS011;67067;46.850;7.578;2023-04-15T05:43:23;6.32;;;3.53;;
77870;SDS011;67067;46.850;7.578;2023-04-15T05:44:25;8.23;;;3.25;;
77870;SDS011;67067;46.850;7.578;2023-04-15T05:45:27;7.35;;;4.00;;
77870;SDS011;67067;46.850;7.578;2023-04-15T05:47:31;8.07;;;3.83;;
77870;SDS011;67067;46.850;7.578;2023-04-15T05:48:33;7.97;;;3.67;;
77870;SDS011;67067;46.850;7.578;2023-04-15T05:50:41;6.22;;;3.72;;
77870;SDS011;67067;46.850;7.578;2023-04-15T05:51:43;6.78;;;3.67;;
77870;SDS011;67067;46.850;7.578;2023-04-15T05:52:47;12.25;;;4.30;;
77870;SDS011;67067;46.850;7.578;2023-04-15T05:53:49;10.68;;;4.47;;
77870;SDS011;67067;46.850;7.578;2023-04-15T05:54:51;8.25;;;4.10;;
77870;SDS011;67067;46.850;7.578;2023-04-15T05:56:54;9.93;;;4.20;;
77870;SDS011;67067;46.850;7.578;2023-04-15T05:57:57;7.10;;;4.28;;
77870;SDS011;67067;46.850;7.578;2023-04-15T05:59:02;10.65;;;4.07;;
77870;SDS011;67067;46.850;7.578;2023-04-15T06:00:04;8.70;;;4.05;;
77870;SDS011;67067;46.850;7.578;2023-04-15T06:01:12;8.73;;;4.18;;
77870;SDS011;67067;46.850;7.578;2023-04-15T06:03:15;8.88;;;3.83;;
77870;SDS011;67067;46.850;7.578;2023-04-15T06:04:22;9.55;;;4.35;;
77870;SDS011;67067;46.850;7.578;2023-04-15T06:05:24;10.05;;;4.05;;
77870;SDS011;67067;46.850;7.578;2023-04-15T06:07:27;7.82;;;3.80;;
77870;SDS011;67067;46.850;7.578;2023-04-15T06:08:29;6.68;;;4.03;;
77870;SDS011;67067;46.850;7.578;2023-04-15T06:09:31;7.18;;;4.03;;
77870;SDS011;67067;46.850;7.578;2023-04-15T06:10:34;8.93;;;4.07;;
77870;SDS011;67067;46.850;7.578;2023-04-15T06:11:37;6.80;;;3.90;;
77870;SDS011;67067;46.850;7.578;2023-04-15T06:13:40;6.88;;;3.75;;
77870;SDS011;67067;46.850;7.578;2023-04-15T06:15:43;7.07;;;3.28;;
77870;SDS011;67067;46.850;7.578;2023-04-15T06:16:47;7.13;;;3.70;;
77870;SDS011;67067;46.850;7.578;2023-04-15T06:17:51;5.90;;;3.00;;
77870;SDS011;67067;46.850;7.578;2023-04-15T06:18:53;5.05;;;3.22;;
77870;SDS011;67067;46.850;7.578;2023-04-15T06:20:56;5.88;;;3.28;;
77870;SDS011;67067;46.850;7.578;2023-04-15T06:23:00;6.22;;;3.30;;
77870;SDS011;67067;46.850;7.578;2023-04-15T06:25:04;4.60;;;2.78;;
77870;SDS011;67067;46.850;7.578;2023-04-15T06:26:08;5.75;;;3.00;;
77870;SDS011;67067;46.850;7.578;2023-04-15T06:28:11;3.70;;;2.65;;
77870;SDS011;67067;46.850;7.578;2023-04-15T06:30:15;6.45;;;3.80;;
77870;SDS011;67067;46.850;7.578;2023-04-15T06:32:18;5.22;;;3.35;;
77870;SDS011;67067;46.850;7.578;2023-04-15T06:33:22;8.23;;;3.58;;
77870;SDS011;67067;46.850;7.578;2023-04-15T06:34:23;10.07;;;3.90;;
77870;SDS011;67067;46.850;7.578;2023-04-15T06:35:25;7.45;;;3.67;;
77870;SDS011;67067;46.850;7.578;2023-04-15T06:36:27;8.65;;;4.22;;
77870;SDS011;67067;46.850;7.578;2023-04-15T06:37:32;10.70;;;4.03;;
77870;SDS011;67067;46.850;7.578;2023-04-15T06:39:38;6.68;;;3.33;;
77870;SDS011;67067;46.850;7.578;2023-04-15T06:40:40;7.30;;;4.07;;
77870;SDS011;67067;46.850;7.578;2023-04-15T06:41:42;12.70;;;4.85;;
77870;SDS011;67067;46.850;7.578;2023-04-15T06:42:45;9.88;;;4.47;;
77870;SDS011;67067;46.850;7.578;2023-04-15T06:43:51;10.48;;;3.70;;
77870;SDS011;67067;46.850;7.578;2023-04-15T06:44:53;7.13;;;3.10;;
77870;SDS011;67067;46.850;7.578;2023-04-15T06:45:57;5.07;;;3.38;;
77870;SDS011;67067;46.850;7.578;2023-04-15T06:46:59;5.60;;;3.15;;
77870;SDS011;67067;46.850;7.578;2023-04-15T06:48:00;6.32;;;3.13;;
77870;SDS011;67067;46.850;7.578;2023-04-15T06:49:04;6.32;;;3.03;;
77870;SDS011;67067;46.850;7.578;2023-04-15T06:50:09;7.07;;;3.30;;
77870;SDS011;67067;46.850;7.578;2023-04-15T06:51:13;7.80;;;3.55;;
77870;SDS011;67067;46.850;7.578;2023-04-15T06:52:14;9.50;;;3.70;;
77870;SDS011;67067;46.850;7.578;2023-04-15T06:53:17;10.23;;;3.70;;
77870;SDS011;67067;46.850;7.578;2023-04-15T06:54:19;6.15;;;3.25;;
77870;SDS011;67067;46.850;7.578;2023-04-15T06:56:22;7.35;;;3.50;;
77870;SDS011;67067;46.850;7.578;2023-04-15T06:58:26;4.55;;;2.90;;
77870;SDS011;67067;46.850;7.578;2023-04-15T07:00:29;6.53;;;3.60;;
77870;SDS011;67067;46.850;7.578;2023-04-15T07:01:31;9.70;;;3.60;;
77870;SDS011;67067;46.850;7.578;2023-04-15T07:02:33;9.63;;;3.63;;
77870;SDS011;67067;46.850;7.578;2023-04-15T07:03:37;7.57;;;3.33;;
77870;SDS011;67067;46.850;7.578;2023-04-15T07:04:39;5.68;;;3.10;;
77870;SDS011;67067;46.850;7.578;2023-04-15T07:05:41;8.45;;;3.35;;
77870;SDS011;67067;46.850;7.578;2023-04-15T07:06:45;5.97;;;3.60;;
77870;SDS011;67067;46.850;7.578;2023-04-15T07:08:48;7.43;;;3.20;;
77870;SDS011;67067;46.850;7.578;2023-04-15T07:09:50;6.75;;;3.70;;
77870;SDS011;67067;46.850;7.578;2023-04-15T07:10:54;9.73;;;4.13;;
77870;SDS011;67067;46.850;7.578;2023-04-15T07:12:57;6.40;;;3.53;;
77870;SDS011;67067;46.850;7.578;2023-04-15T07:13:58;7.90;;;3.63;;
77870;SDS011;67067;46.850;7.578;2023-04-15T07:15:01;7.95;;;3.72;;
77870;SDS011;67067;46.850;7.578;2023-04-15T07:16:04;9.38;;;4.18;;
77870;SDS011;67067;46.850;7.578;2023-04-15T07:17:06;9.93;;;4.28;;
77870;SDS011;67067;46.850;7.578;2023-04-15T07:18:08;8.38;;;3.83;;
77870;SDS011;67067;46.850;7.578;2023-04-15T07:19:10;6.15;;;3.30;;
77870;SDS011;67067;46.850;7.578;2023-04-15T07:20:12;5.00;;;3.05;;
77870;SDS011;67067;46.850;7.578;2023-04-15T07:21:14;6.70;;;3.20;;
77870;SDS011;67067;46.850;7.578;2023-04-15T07:23:17;3.40;;;2.30;;
77870;SDS011;67067;46.850;7.578;2023-04-15T07:24:19;5.32;;;2.17;;
77870;SDS011;67067;46.850;7.578;2023-04-15T07:26:22;4.03;;;2.47;;
77870;SDS011;67067;46.850;7.578;2023-04-15T07:27:24;4.15;;;1.98;;
77870;SDS011;67067;46.850;7.578;2023-04-15T07:28:27;8.57;;;2.40;;
77870;SDS011;67067;46.850;7.578;2023-04-15T07:30:30;6.25;;;2.25;;
77870;SDS011;67067;46.850;7.578;2023-04-15T07:32:34;2.55;;;2.20;;
77870;SDS011;67067;46.850;7.578;2023-04-15T07:33:36;4.13;;;2.40;;
77870;SDS011;67067;46.850;7.578;2023-04-15T07:35:40;2.30;;;2.10;;
77870;SDS011;67067;46.850;7.578;2023-04-15T07:37:43;4.13;;;2.20;;
77870;SDS011;67067;46.850;7.578;2023-04-15T07:39:47;7.07;;;2.43;;
77870;SDS011;67067;46.850;7.578;2023-04-15T07:40:49;6.82;;;2.35;;
77870;SDS011;67067;46.850;7.578;2023-04-15T07:42:52;9.27;;;4.07;;
77870;SDS011;67067;46.850;7.578;2023-04-15T07:43:54;9.60;;;3.58;;
77870;SDS011;67067;46.850;7.578;2023-04-15T07:45:58;4.75;;;2.70;;
77870;SDS011;67067;46.850;7.578;2023-04-15T07:47:01;3.88;;;2.55;;
77870;SDS011;67067;46.850;7.578;2023-04-15T07:48:03;3.63;;;2.65;;
77870;SDS011;67067;46.850;7.578;2023-04-15T07:49:07;5.63;;;2.80;;
77870;SDS011;67067;46.850;7.578;2023-04-15T07:50:09;4.25;;;2.55;;